createdAt,value
2022-12-25T00:01:34.163Z,100183.78
2022-12-25T00:04:02.110Z,100185.44
2022-12-25T00:06:29.797Z,100188.66
2022-12-25T00:08:58.710Z,100177.22
2022-12-25T00:11:26.267Z,100180.44
2022-12-25T00:13:53.793Z,100165.84
2022-12-25T00:16:23.713Z,100169.94
2022-12-25T00:18:52.204Z,100169.03
2022-12-25T00:21:20.989Z,100163.00
2022-12-25T00:23:49.155Z,100155.09
2022-12-25T00:26:20.908Z,100148.72
2022-12-25T00:28:48.531Z,100138.91
2022-12-25T00:31:17.957Z,100137.63
2022-12-25T00:33:47.864Z,100144.72
2022-12-25T00:36:18.031Z,100144.34
2022-12-25T00:38:46.069Z,100147.41
2022-12-25T00:41:16.653Z,100156.34
2022-12-25T00:43:45.568Z,100143.44
2022-12-25T00:46:14.057Z,100149.97
2022-12-25T00:48:45.110Z,100157.16
2022-12-25T00:51:13.371Z,100164.28
2022-12-25T00:53:40.900Z,100173.50
2022-12-25T00:56:09.094Z,100174.59
2022-12-25T00:58:36.982Z,100167.34
2022-12-25T01:01:06.028Z,100160.41
2022-12-25T01:03:33.665Z,100161.34
2022-12-25T01:06:03.493Z,100161.44
2022-12-25T01:08:33.554Z,100148.66
2022-12-25T01:11:02.502Z,100153.75
2022-12-25T01:13:30.860Z,100152.63
2022-12-25T01:15:58.591Z,100159.69
2022-12-25T01:18:27.490Z,100155.25
2022-12-25T01:20:55.045Z,100165.56
2022-12-25T01:23:22.597Z,100168.72
2022-12-25T01:25:50.159Z,100173.97
2022-12-25T01:28:17.676Z,100182.75
2022-12-25T01:30:49.386Z,100181.38
2022-12-25T01:33:16.905Z,100185.25
2022-12-25T01:35:45.832Z,100200.41
2022-12-25T01:38:13.544Z,100193.94
2022-12-25T01:40:41.110Z,100188.13
2022-12-25T01:43:22.946Z,100179.63
2022-12-25T01:45:52.604Z,100172.72
2022-12-25T01:48:23.122Z,100178.53
2022-12-25T01:50:55.293Z,100181.56
2022-12-25T01:53:23.901Z,100186.56
2022-12-25T01:55:56.746Z,100181.38
2022-12-25T01:58:24.751Z,100180.00
2022-12-25T02:00:53.215Z,100168.66
2022-12-25T02:03:22.703Z,100163.13
2022-12-25T02:05:52.368Z,100157.56
2022-12-25T02:08:22.471Z,100165.69
2022-12-25T02:10:50.346Z,100159.59
2022-12-25T02:13:20.250Z,100165.53
2022-12-25T02:15:58.060Z,100167.25
2022-12-25T02:18:34.680Z,100158.66
2022-12-25T02:21:38.937Z,100158.47
2022-12-25T02:24:40.734Z,100158.59
2022-12-25T02:27:25.467Z,100147.31
2022-12-25T02:30:03.031Z,100139.66
2022-12-25T02:32:35.738Z,100146.38
2022-12-25T02:35:05.838Z,100147.69
2022-12-25T02:37:40.793Z,100164.00
2022-12-25T02:40:15.991Z,100158.47
2022-12-25T02:43:09.438Z,100157.44
2022-12-25T02:46:01.122Z,100153.88
2022-12-25T02:48:50.692Z,100144.19
2022-12-25T02:51:38.098Z,100137.91
2022-12-25T02:54:28.369Z,100141.31
2022-12-25T02:57:15.708Z,100137.91
2022-12-25T03:00:05.446Z,100128.78
2022-12-25T03:02:52.929Z,100130.22
2022-12-25T03:05:42.588Z,100126.91
2022-12-25T03:08:16.588Z,100135.59
2022-12-25T03:11:05.371Z,100130.34
2022-12-25T03:13:38.887Z,100127.00
2022-12-25T03:16:25.269Z,100129.50
2022-12-25T03:18:54.754Z,100140.31
2022-12-25T03:21:40.170Z,100142.34
2022-12-25T03:24:25.875Z,100148.25
2022-12-25T03:26:56.464Z,100143.91
2022-12-25T03:29:41.878Z,100149.50
2022-12-25T03:32:19.492Z,100154.63
2022-12-25T03:35:14.712Z,100152.47
2022-12-25T03:38:11.669Z,100152.03
2022-12-25T03:41:05.898Z,100149.81
2022-12-25T03:43:59.857Z,100143.25
2022-12-25T03:46:50.690Z,100148.25
2022-12-25T03:49:41.056Z,100143.16
2022-12-25T03:52:32.720Z,100137.19
2022-12-25T03:55:21.619Z,100139.31
2022-12-25T03:58:06.965Z,100134.06
2022-12-25T04:00:52.393Z,100118.81
2022-12-25T04:03:37.831Z,100108.38
2022-12-25T04:06:23.859Z,100110.78
2022-12-25T04:09:10.127Z,100113.00
2022-12-25T04:12:00.466Z,100109.78
2022-12-25T04:14:47.759Z,100118.44
2022-12-25T04:17:32.808Z,100109.97
2022-12-25T04:20:18.129Z,100109.25
2022-12-25T04:23:03.421Z,100100.56
2022-12-25T04:25:49.944Z,100100.41
2022-12-25T04:28:35.253Z,100110.78
2022-12-25T04:31:20.621Z,100105.06
2022-12-25T04:34:05.915Z,100101.28
2022-12-25T04:36:33.692Z,100097.59
2022-12-25T04:39:01.278Z,100105.81
2022-12-25T04:41:30.174Z,100104.59
2022-12-25T04:43:57.659Z,100112.00
2022-12-25T04:46:25.309Z,100113.13
2022-12-25T04:48:52.998Z,100114.19
2022-12-25T04:51:22.215Z,100107.94
2022-12-25T04:53:50.683Z,100101.22
2022-12-25T04:56:18.631Z,100101.84
2022-12-25T04:58:47.959Z,100109.78
2022-12-25T05:01:16.564Z,100106.34
2022-12-25T05:03:44.379Z,100102.78
2022-12-25T05:06:12.077Z,100105.25
2022-12-25T05:08:39.713Z,100095.38
2022-12-25T05:11:08.818Z,100095.56
2022-12-25T05:13:36.612Z,100098.44
2022-12-25T05:16:07.496Z,100100.00
2022-12-25T05:18:35.586Z,100110.34
2022-12-25T05:21:03.953Z,100118.09
2022-12-25T05:23:31.651Z,100110.72
2022-12-25T05:25:59.637Z,100119.81
2022-12-25T05:28:27.138Z,100115.78
2022-12-25T05:30:57.272Z,100110.50
2022-12-25T05:33:26.163Z,100112.53
2022-12-25T05:35:53.663Z,100108.84
2022-12-25T05:38:21.164Z,100116.63
2022-12-25T05:40:48.733Z,100109.59
2022-12-25T05:43:16.289Z,100103.69
2022-12-25T05:45:43.889Z,100102.59
2022-12-25T05:48:11.617Z,100104.06
2022-12-25T05:50:40.526Z,100095.19
2022-12-25T05:53:09.731Z,100091.13
2022-12-25T05:55:38.197Z,100093.94
2022-12-25T05:58:06.836Z,100101.28
2022-12-25T06:00:35.205Z,100099.16
2022-12-25T06:03:03.949Z,100092.28
2022-12-25T06:05:32.102Z,100088.91
2022-12-25T06:08:00.977Z,100089.41
2022-12-25T06:10:28.507Z,100089.41
2022-12-25T06:12:55.974Z,100087.63
2022-12-25T06:15:23.475Z,100085.63
2022-12-25T06:17:51.101Z,100081.47
2022-12-25T06:20:18.855Z,100079.63
2022-12-25T06:22:46.380Z,100081.53
2022-12-25T06:25:15.374Z,100070.03
2022-12-25T06:27:42.840Z,100071.31
2022-12-25T06:30:11.621Z,100066.31
2022-12-25T06:32:39.233Z,100064.75
2022-12-25T06:35:07.677Z,100053.09
2022-12-25T06:37:35.212Z,100058.03
2022-12-25T06:40:02.768Z,100053.09
2022-12-25T06:42:31.640Z,100061.84
2022-12-25T06:44:59.127Z,100055.06
2022-12-25T06:47:26.879Z,100062.63
2022-12-25T06:49:54.428Z,100057.38
2022-12-25T06:52:21.932Z,100060.59
2022-12-25T06:54:49.736Z,100059.78
2022-12-25T06:57:17.441Z,100058.69
2022-12-25T06:59:51.271Z,100047.53
2022-12-25T07:02:24.423Z,100058.38
2022-12-25T07:04:52.969Z,100060.91
2022-12-25T07:07:22.105Z,100067.63
2022-12-25T07:09:50.647Z,100068.25
2022-12-25T07:12:20.956Z,100063.22
2022-12-25T07:14:50.587Z,100058.69
2022-12-25T07:17:18.823Z,100056.91
2022-12-25T07:19:47.229Z,100056.91
2022-12-25T07:22:15.420Z,100061.28
2022-12-25T07:24:43.128Z,100057.59
2022-12-25T07:27:11.087Z,100060.19
2022-12-25T07:29:38.585Z,100066.59
2022-12-25T07:32:07.875Z,100058.88
2022-12-25T07:34:35.483Z,100061.66
2022-12-25T07:37:03.083Z,100053.34
2022-12-25T07:39:31.054Z,100052.69
2022-12-25T07:41:58.608Z,100051.28
2022-12-25T07:44:26.310Z,100041.41
2022-12-25T07:46:54.014Z,100049.09
2022-12-25T07:49:23.061Z,100042.91
2022-12-25T07:51:50.669Z,100046.78
2022-12-25T07:54:18.351Z,100048.56
2022-12-25T07:56:46.424Z,100056.00
2022-12-25T07:59:15.027Z,100050.75
2022-12-25T08:01:42.826Z,100055.16
2022-12-25T08:04:11.657Z,100053.78
2022-12-25T08:06:40.777Z,100041.03
2022-12-25T08:09:10.969Z,100044.03
2022-12-25T08:11:39.182Z,100048.97
2022-12-25T08:14:07.658Z,100059.66
2022-12-25T08:16:35.736Z,100044.63
2022-12-25T08:19:03.307Z,100023.03
2022-12-25T08:21:30.892Z,100019.97
2022-12-25T08:23:59.751Z,100013.72
2022-12-25T08:26:27.518Z,100001.44
2022-12-25T08:28:55.195Z,99999.81
2022-12-25T08:31:24.889Z,99997.53
2022-12-25T08:33:54.494Z,100004.03
2022-12-25T08:36:22.724Z,100010.94
2022-12-25T08:38:50.974Z,100018.75
2022-12-25T08:41:19.875Z,100029.47
2022-12-25T08:43:47.983Z,100043.97
2022-12-25T08:46:15.883Z,100040.47
2022-12-25T08:48:44.439Z,100016.78
2022-12-25T08:51:15.411Z,100007.81
2022-12-25T08:53:43.385Z,99999.47
2022-12-25T08:56:11.004Z,99983.81
2022-12-25T08:58:39.858Z,99991.22
2022-12-25T09:01:09.059Z,99997.69
2022-12-25T09:03:36.740Z,100004.09
2022-12-25T09:06:06.245Z,100015.97
2022-12-25T09:08:34.228Z,100021.84
2022-12-25T09:11:03.287Z,100034.53
2022-12-25T09:13:30.984Z,100044.78
2022-12-25T09:16:00.229Z,100043.88
2022-12-25T09:18:27.848Z,100046.22
2022-12-25T09:21:00.415Z,100052.75
2022-12-25T09:23:28.824Z,100042.19
2022-12-25T09:25:56.489Z,100043.53
2022-12-25T09:28:24.011Z,100042.81
2022-12-25T09:30:52.076Z,100033.06
2022-12-25T09:33:21.223Z,100040.78
2022-12-25T09:35:54.738Z,100036.06
2022-12-25T09:38:22.641Z,100036.06
2022-12-25T09:40:58.290Z,100032.03
2022-12-25T09:43:28.516Z,100030.63
2022-12-25T09:45:57.932Z,100018.25
2022-12-25T09:48:31.648Z,100021.97
2022-12-25T09:51:06.484Z,100019.53
2022-12-25T09:53:39.832Z,100009.19
2022-12-25T09:56:12.260Z,100009.53
2022-12-25T09:58:42.381Z,100014.50
2022-12-25T10:01:19.868Z,100013.91
2022-12-25T10:04:09.117Z,100005.25
2022-12-25T10:06:45.596Z,100002.31
2022-12-25T10:09:32.792Z,99985.53
2022-12-25T10:12:13.745Z,99979.25
2022-12-25T10:14:50.773Z,99971.84
2022-12-25T10:17:34.089Z,99960.38
2022-12-25T10:20:11.540Z,99945.44
2022-12-25T10:22:43.428Z,99944.53
2022-12-25T10:25:17.213Z,99937.88
2022-12-25T10:27:44.867Z,99932.72
2022-12-25T10:30:17.778Z,99924.44
2022-12-25T10:32:46.405Z,99940.34
2022-12-25T10:35:17.684Z,99944.41
2022-12-25T10:37:49.661Z,99953.84
2022-12-25T10:40:30.696Z,99959.75
2022-12-25T10:43:05.010Z,99954.66
2022-12-25T10:45:45.319Z,99956.81
2022-12-25T10:48:21.998Z,99951.69
2022-12-25T10:50:51.550Z,99930.09
2022-12-25T10:53:25.902Z,99929.16
2022-12-25T10:56:01.562Z,99926.28
2022-12-25T10:58:30.189Z,99934.75
2022-12-25T11:01:01.022Z,99921.78
2022-12-25T11:03:32.322Z,99923.53
2022-12-25T11:06:02.762Z,99925.59
2022-12-25T11:08:33.409Z,99915.69
2022-12-25T11:11:06.077Z,99906.59
2022-12-25T11:13:37.573Z,99913.88
2022-12-25T11:16:09.340Z,99919.03
2022-12-25T11:18:46.866Z,99920.44
2022-12-25T11:21:23.168Z,99905.97
2022-12-25T11:23:56.787Z,99912.59
2022-12-25T11:26:24.561Z,99904.75
2022-12-25T11:28:53.915Z,99913.25
2022-12-25T11:31:23.759Z,99915.91
2022-12-25T11:33:56.016Z,99907.00
2022-12-25T11:36:32.623Z,99908.88
2022-12-25T11:39:06.278Z,99903.28
2022-12-25T11:41:36.981Z,99897.50
2022-12-25T11:44:19.055Z,99887.38
2022-12-25T11:46:52.203Z,99883.22
2022-12-25T11:49:22.139Z,99881.16
2022-12-25T11:51:54.593Z,99883.25
2022-12-25T11:54:27.648Z,99878.06
2022-12-25T11:57:02.146Z,99877.44
2022-12-25T11:59:33.913Z,99867.38
2022-12-25T12:02:18.677Z,99863.00
2022-12-25T12:04:50.838Z,99852.00
2022-12-25T12:07:24.309Z,99847.25
2022-12-25T12:10:03.885Z,99842.34
2022-12-25T12:12:46.639Z,99826.63
2022-12-25T12:15:28.126Z,99814.84
2022-12-25T12:17:55.836Z,99801.00
2022-12-25T12:20:33.394Z,99786.97
2022-12-25T12:23:05.833Z,99782.41
2022-12-25T12:25:39.749Z,99802.63
2022-12-25T12:28:07.618Z,99794.34
2022-12-25T12:30:36.201Z,99807.13
2022-12-25T12:33:07.131Z,99807.19
2022-12-25T12:35:37.825Z,99812.56
2022-12-25T12:38:12.872Z,99810.88
2022-12-25T12:40:43.186Z,99813.53
2022-12-25T12:43:30.679Z,99804.03
2022-12-25T12:46:03.237Z,99793.28
2022-12-25T12:48:38.384Z,99794.69
2022-12-25T12:51:06.926Z,99791.84
2022-12-25T12:53:36.079Z,99797.38
2022-12-25T12:56:16.214Z,99797.97
2022-12-25T12:58:48.431Z,99802.75
2022-12-25T13:01:30.515Z,99809.09
2022-12-25T13:04:14.285Z,99801.25
2022-12-25T13:06:47.094Z,99801.53
2022-12-25T13:09:30.466Z,99797.56
2022-12-25T13:11:58.177Z,99790.28
2022-12-25T13:14:28.614Z,99787.19
2022-12-25T13:16:56.199Z,99777.88
2022-12-25T13:19:29.021Z,99776.84
2022-12-25T13:21:58.191Z,99783.31
2022-12-25T13:24:28.948Z,99780.19
2022-12-25T13:26:58.870Z,99791.00
2022-12-25T13:29:30.480Z,99797.19
2022-12-25T13:31:58.922Z,99803.56
2022-12-25T13:34:31.606Z,99790.41
2022-12-25T13:37:01.181Z,99795.13
2022-12-25T13:39:30.201Z,99790.59
2022-12-25T13:42:07.009Z,99789.19
2022-12-25T13:44:43.432Z,99773.03
2022-12-25T13:47:19.215Z,99772.44
2022-12-25T13:49:47.871Z,99756.72
2022-12-25T13:52:20.506Z,99747.09
2022-12-25T13:55:02.543Z,99749.34
2022-12-25T13:57:35.369Z,99742.97
2022-12-25T14:00:05.214Z,99753.06
2022-12-25T14:02:37.824Z,99758.25
2022-12-25T14:05:22.918Z,99764.66
2022-12-25T14:07:53.074Z,99764.47
2022-12-25T14:10:23.264Z,99760.56
2022-12-25T14:12:52.285Z,99763.22
2022-12-25T14:15:24.753Z,99759.94
2022-12-25T14:17:53.501Z,99768.00
2022-12-25T14:20:25.905Z,99772.13
2022-12-25T14:22:57.223Z,99770.06
2022-12-25T14:25:30.757Z,99767.38
2022-12-25T14:27:58.599Z,99763.66
2022-12-25T14:30:29.775Z,99759.31
2022-12-25T14:32:58.488Z,99767.78
2022-12-25T14:35:26.716Z,99769.88
2022-12-25T14:37:59.920Z,99770.66
2022-12-25T14:40:31.558Z,99765.31
2022-12-25T14:43:01.116Z,99756.84
2022-12-25T14:45:31.809Z,99761.16
2022-12-25T14:48:03.085Z,99764.28
2022-12-25T14:50:33.461Z,99768.22
2022-12-25T14:53:01.354Z,99780.38
2022-12-25T14:55:31.330Z,99785.75
2022-12-25T14:58:04.546Z,99784.09
2022-12-25T15:00:36.349Z,99767.78
2022-12-25T15:03:06.906Z,99766.34
2022-12-25T15:05:36.968Z,99763.03
2022-12-25T15:08:25.744Z,99765.09
2022-12-25T15:11:01.555Z,99757.69
2022-12-25T15:13:31.439Z,99747.97
2022-12-25T15:16:04.123Z,99751.47
2022-12-25T15:18:35.763Z,99738.47
2022-12-25T15:21:03.942Z,99750.84
2022-12-25T15:23:31.623Z,99747.75
2022-12-25T15:26:02.836Z,99758.84
2022-12-25T15:28:30.391Z,99760.53
2022-12-25T15:30:58.022Z,99759.72
2022-12-25T15:33:25.850Z,99757.63
2022-12-25T15:35:53.378Z,99754.72
2022-12-25T15:38:20.930Z,99755.56
2022-12-25T15:40:48.551Z,99758.03
2022-12-25T15:43:40.111Z,99750.00
2022-12-25T15:46:08.991Z,99747.94
2022-12-25T15:48:36.567Z,99745.66
2022-12-25T15:51:04.242Z,99753.72
2022-12-25T15:53:31.786Z,99748.97
2022-12-25T15:55:59.382Z,99756.16
2022-12-25T15:58:28.344Z,99759.47
2022-12-25T16:00:55.952Z,99758.47
2022-12-25T16:03:23.628Z,99758.84
2022-12-25T16:05:52.357Z,99762.78
2022-12-25T16:08:19.898Z,99755.78
2022-12-25T16:10:47.577Z,99758.63
2022-12-25T16:13:15.190Z,99761.69
2022-12-25T16:15:45.010Z,99767.50
2022-12-25T16:18:12.661Z,99761.91
2022-12-25T16:20:40.425Z,99753.44
2022-12-25T16:23:07.938Z,99738.16
2022-12-25T16:25:35.593Z,99744.16
2022-12-25T16:28:03.639Z,99736.09
2022-12-25T16:30:31.307Z,99730.31
2022-12-25T16:33:00.133Z,99738.72
2022-12-25T16:35:27.726Z,99727.38
2022-12-25T16:37:55.274Z,99728.97
2022-12-25T16:40:22.925Z,99726.50
2022-12-25T16:42:50.647Z,99718.88
2022-12-25T16:45:18.322Z,99722.97
2022-12-25T16:47:45.838Z,99718.44
2022-12-25T16:50:14.831Z,99739.50
2022-12-25T16:52:42.480Z,99738.88
2022-12-25T16:55:10.679Z,99734.53
2022-12-25T16:57:38.415Z,99738.63
2022-12-25T17:00:07.223Z,99730.41
2022-12-25T17:02:35.013Z,99744.84
2022-12-25T17:05:02.822Z,99748.31
2022-12-25T17:07:32.890Z,99748.72
2022-12-25T17:10:00.429Z,99750.53
2022-12-25T17:12:27.994Z,99771.53
2022-12-25T17:14:55.603Z,99777.72
2022-12-25T17:17:23.164Z,99771.31
2022-12-25T17:19:50.671Z,99776.69
2022-12-25T17:22:19.974Z,99770.09
2022-12-25T17:24:48.923Z,99762.47
2022-12-25T17:27:16.424Z,99762.94
2022-12-25T17:29:45.026Z,99749.78
2022-12-25T17:32:13.002Z,99760.50
2022-12-25T17:34:40.536Z,99776.56
2022-12-25T17:37:08.125Z,99774.72
2022-12-25T17:39:35.634Z,99764.00
2022-12-25T17:42:04.954Z,99774.69
2022-12-25T17:44:32.974Z,99769.31
2022-12-25T17:47:00.832Z,99758.81
2022-12-25T17:49:28.893Z,99746.84
2022-12-25T17:51:56.522Z,99740.41
2022-12-25T17:54:24.088Z,99743.44
2022-12-25T17:56:51.620Z,99730.25
2022-12-25T17:59:28.180Z,99724.91
2022-12-25T18:01:55.922Z,99720.97
2022-12-25T18:04:24.121Z,99727.41
2022-12-25T18:06:51.869Z,99731.16
2022-12-25T18:09:19.739Z,99732.41
2022-12-25T18:11:47.309Z,99736.91
2022-12-25T18:14:16.867Z,99746.19
2022-12-25T18:16:46.519Z,99749.69
2022-12-25T18:19:15.614Z,99735.47
2022-12-25T18:21:43.171Z,99740.44
2022-12-25T18:24:10.957Z,99744.19
2022-12-25T18:26:38.806Z,99739.66
2022-12-25T18:29:06.883Z,99742.94
2022-12-25T18:31:36.290Z,99727.31
2022-12-25T18:34:05.505Z,99729.19
2022-12-25T18:36:33.318Z,99732.09
2022-12-25T18:39:00.865Z,99732.31
2022-12-25T18:41:30.126Z,99726.53
2022-12-25T18:43:58.095Z,99714.25
2022-12-25T18:46:27.641Z,99715.69
2022-12-25T18:48:56.177Z,99707.47
2022-12-25T18:51:29.872Z,99701.91
2022-12-25T18:54:02.508Z,99711.59
2022-12-25T18:56:30.048Z,99711.19
2022-12-25T18:58:59.800Z,99715.94
2022-12-25T19:01:27.701Z,99715.34
2022-12-25T19:04:02.161Z,99719.03
2022-12-25T19:06:34.073Z,99717.22
2022-12-25T19:09:09.425Z,99716.38
2022-12-25T19:11:42.058Z,99708.56
2022-12-25T19:14:13.591Z,99713.47
2022-12-25T19:16:41.736Z,99712.25
2022-12-25T19:19:09.439Z,99712.69
2022-12-25T19:21:39.343Z,99709.59
2022-12-25T19:24:07.347Z,99714.53
2022-12-25T19:26:35.907Z,99705.47
2022-12-25T19:29:03.701Z,99696.78
2022-12-25T19:31:31.324Z,99699.88
2022-12-25T19:33:58.901Z,99699.91
2022-12-25T19:36:26.476Z,99712.03
2022-12-25T19:38:57.943Z,99715.56
2022-12-25T19:41:25.498Z,99716.38
2022-12-25T19:43:53.560Z,99727.31
2022-12-25T19:46:23.903Z,99729.78
2022-12-25T19:48:52.028Z,99734.56
2022-12-25T19:51:22.412Z,99722.78
2022-12-25T19:53:51.654Z,99729.59
2022-12-25T19:56:20.651Z,99730.00
2022-12-25T19:58:48.205Z,99731.25
2022-12-25T20:01:18.730Z,99726.72
2022-12-25T20:03:47.233Z,99726.50
2022-12-25T20:06:21.829Z,99724.03
2022-12-25T20:08:52.269Z,99730.03
2022-12-25T20:11:22.889Z,99732.50
2022-12-25T20:13:51.226Z,99725.47
2022-12-25T20:16:18.820Z,99709.59
2022-12-25T20:18:46.388Z,99710.59
2022-12-25T20:21:16.021Z,99722.16
2022-12-25T20:23:45.192Z,99719.91
2022-12-25T20:26:13.795Z,99736.63
2022-12-25T20:28:43.129Z,99745.28
2022-12-25T20:31:15.118Z,99733.09
2022-12-25T20:33:43.246Z,99723.81
2022-12-25T20:36:12.953Z,99719.28
2022-12-25T20:38:40.691Z,99716.81
2022-12-25T20:41:28.497Z,99735.59
2022-12-25T20:43:58.062Z,99740.97
2022-12-25T20:46:26.605Z,99742.63
2022-12-25T20:48:54.961Z,99743.03
2022-12-25T20:51:24.106Z,99742.41
2022-12-25T20:53:52.588Z,99729.19
2022-12-25T20:56:23.021Z,99732.50
2022-12-25T20:58:53.983Z,99735.38
2022-12-25T21:01:23.156Z,99740.75
2022-12-25T21:03:51.111Z,99740.53
2022-12-25T21:06:18.914Z,99744.25
2022-12-25T21:08:46.590Z,99751.47
2022-12-25T21:11:15.675Z,99754.97
2022-12-25T21:13:48.623Z,99763.44
2022-12-25T21:16:18.539Z,99767.38
2022-12-25T21:18:47.894Z,99769.03
2022-12-25T21:21:16.312Z,99777.91
2022-12-25T21:23:43.902Z,99769.25
2022-12-25T21:26:13.655Z,99764.28
2022-12-25T21:28:41.273Z,99775.00
2022-12-25T21:31:12.535Z,99770.47
2022-12-25T21:33:51.273Z,99774.81
2022-12-25T21:36:22.426Z,99777.06
2022-12-25T21:38:55.050Z,99777.72
2022-12-25T21:41:24.087Z,99786.59
2022-12-25T21:43:52.066Z,99779.97
2022-12-25T21:46:20.772Z,99789.66
2022-12-25T21:48:49.258Z,99788.22
2022-12-25T21:51:36.133Z,99804.75
2022-12-25T21:54:06.118Z,99797.94
2022-12-25T21:56:41.401Z,99798.75
2022-12-25T21:59:13.434Z,99798.97
2022-12-25T22:01:41.372Z,99797.75
2022-12-25T22:04:10.588Z,99798.16
2022-12-25T22:06:57.030Z,99797.53
2022-12-25T22:09:25.959Z,99808.00
2022-12-25T22:12:11.100Z,99802.44
2022-12-25T22:14:58.804Z,99807.63
2022-12-25T22:17:45.206Z,99808.44
2022-12-25T22:20:15.058Z,99798.72
2022-12-25T22:22:42.652Z,99797.09
2022-12-25T22:25:13.154Z,99796.28
2022-12-25T22:27:42.018Z,99793.38
2022-12-25T22:30:12.220Z,99793.59
2022-12-25T22:32:39.900Z,99796.69
2022-12-25T22:35:08.316Z,99787.63
2022-12-25T22:37:36.664Z,99794.41
2022-12-25T22:40:04.818Z,99790.09
2022-12-25T22:42:34.016Z,99793.41
2022-12-25T22:45:01.785Z,99793.81
2022-12-25T22:47:29.341Z,99794.41
2022-12-25T22:49:56.924Z,99801.44
2022-12-25T22:52:24.671Z,99796.06
2022-12-25T22:54:52.311Z,99793.38
2022-12-25T22:57:19.945Z,99799.78
2022-12-25T22:59:48.974Z,99798.13
2022-12-25T23:02:16.815Z,99778.72
2022-12-25T23:04:44.611Z,99787.19
2022-12-25T23:07:14.240Z,99792.13
2022-12-25T23:09:42.020Z,99797.50
2022-12-25T23:12:30.244Z,99811.94
2022-12-25T23:14:58.165Z,99809.44
2022-12-25T23:17:48.993Z,99806.41
2022-12-25T23:20:34.591Z,99811.53
2022-12-25T23:23:20.251Z,99803.06
2022-12-25T23:26:05.652Z,99806.97
2022-12-25T23:28:51.013Z,99807.41
2022-12-25T23:31:23.347Z,99812.38
2022-12-25T23:33:50.846Z,99807.81
2022-12-25T23:36:18.335Z,99816.50
2022-12-25T23:38:45.973Z,99811.34
2022-12-25T23:41:13.558Z,99812.34
2022-12-25T23:43:41.128Z,99810.88
2022-12-25T23:46:08.649Z,99805.09
2022-12-25T23:48:37.536Z,99804.28
2022-12-25T23:51:06.178Z,99802.03
2022-12-25T23:53:34.178Z,99799.97
2022-12-25T23:56:02.395Z,99800.59
2022-12-25T23:58:30.244Z,99795.63
